sensor_id;sensor_type;location;lat;lon;timestamp;P1;durP1;ratioP1;P2;durP2;ratioP2
70268;SDS011;58514;48.398;-4.274;2023-02-28T01:03:04;18.25;;;4.85;;
70268;SDS011;58514;48.398;-4.274;2023-02-28T01:05:30;15.20;;;4.80;;
70268;SDS011;58514;48.398;-4.274;2023-02-28T01:07:55;25.90;;;6.73;;
70268;SDS011;58514;48.398;-4.274;2023-02-28T01:10:21;13.20;;;5.20;;
70268;SDS011;58514;48.398;-4.274;2023-02-28T01:12:47;16.70;;;6.53;;
70268;SDS011;58514;48.398;-4.274;2023-02-28T01:15:13;20.93;;;5.10;;
70268;SDS011;58514;48.398;-4.274;2023-02-28T01:17:38;14.27;;;4.27;;
70268;SDS011;58514;48.398;-4.274;2023-02-28T01:20:04;12.07;;;2.97;;
70268;SDS011;58514;48.398;-4.274;2023-02-28T01:22:30;13.18;;;4.68;;
70268;SDS011;58514;48.398;-4.274;2023-02-28T01:24:56;10.43;;;3.07;;
70268;SDS011;58514;48.398;-4.274;2023-02-28T01:27:21;20.53;;;4.07;;
70268;SDS011;58514;48.398;-4.274;2023-02-28T01:29:47;18.43;;;3.53;;
70268;SDS011;58514;48.398;-4.274;2023-02-28T01:32:13;16.27;;;3.93;;
70268;SDS011;58514;48.398;-4.274;2023-02-28T01:34:38;14.03;;;3.37;;
70268;SDS011;58514;48.398;-4.274;2023-02-28T01:37:04;8.80;;;2.83;;
70268;SDS011;58514;48.398;-4.274;2023-02-28T01:39:30;16.00;;;3.00;;
70268;SDS011;58514;48.398;-4.274;2023-02-28T01:41:56;15.90;;;4.13;;
70268;SDS011;58514;48.398;-4.274;2023-02-28T01:47:29;15.88;;;3.90;;
70268;SDS011;58514;48.398;-4.274;2023-02-28T01:50:09;22.98;;;4.70;;
70268;SDS011;58514;48.398;-4.274;2023-02-28T01:52:45;38.38;;;5.35;;
70268;SDS011;58514;48.398;-4.274;2023-02-28T01:55:12;20.65;;;4.75;;
70268;SDS011;58514;48.398;-4.274;2023-02-28T01:57:45;22.48;;;4.00;;
70268;SDS011;58514;48.398;-4.274;2023-02-28T02:00:14;19.73;;;4.68;;
70268;SDS011;58514;48.398;-4.274;2023-02-28T02:02:43;17.05;;;3.50;;
70268;SDS011;58514;48.398;-4.274;2023-02-28T02:05:14;20.05;;;3.90;;
70268;SDS011;58514;48.398;-4.274;2023-02-28T02:07:43;13.77;;;3.45;;
70268;SDS011;58514;48.398;-4.274;2023-02-28T02:16:10;20.73;;;4.43;;
70268;SDS011;58514;48.398;-4.274;2023-02-28T02:35:47;20.50;;;4.50;;
70268;SDS011;58514;48.398;-4.274;2023-02-28T02:38:31;23.10;;;4.90;;
70268;SDS011;58514;48.398;-4.274;2023-02-28T02:41:15;26.65;;;4.72;;
70268;SDS011;58514;48.398;-4.274;2023-02-28T02:43:53;16.23;;;4.18;;
70268;SDS011;58514;48.398;-4.274;2023-02-28T02:46:28;22.70;;;4.05;;
70268;SDS011;58514;48.398;-4.274;2023-02-28T02:48:59;22.80;;;4.00;;
70268;SDS011;58514;48.398;-4.274;2023-02-28T02:51:28;17.15;;;3.47;;
70268;SDS011;58514;48.398;-4.274;2023-02-28T02:53:58;14.27;;;4.35;;
70268;SDS011;58514;48.398;-4.274;2023-02-28T02:56:34;23.38;;;6.40;;
70268;SDS011;58514;48.398;-4.274;2023-02-28T02:59:02;11.35;;;3.30;;
70268;SDS011;58514;48.398;-4.274;2023-02-28T03:01:31;13.18;;;3.13;;
70268;SDS011;58514;48.398;-4.274;2023-02-28T03:04:00;25.67;;;4.75;;
70268;SDS011;58514;48.398;-4.274;2023-02-28T03:06:28;20.25;;;3.60;;
70268;SDS011;58514;48.398;-4.274;2023-02-28T03:08:54;13.03;;;3.13;;
70268;SDS011;58514;48.398;-4.274;2023-02-28T03:11:20;15.50;;;3.33;;
70268;SDS011;58514;48.398;-4.274;2023-02-28T03:13:51;21.10;;;3.90;;
70268;SDS011;58514;48.398;-4.274;2023-02-28T03:16:41;13.32;;;3.60;;
70268;SDS011;58514;48.398;-4.274;2023-02-28T03:25:00;16.65;;;4.68;;
70268;SDS011;58514;48.398;-4.274;2023-02-28T03:28:00;17.27;;;4.07;;
70268;SDS011;58514;48.398;-4.274;2023-02-28T03:31:00;20.77;;;4.47;;
70268;SDS011;58514;48.398;-4.274;2023-02-28T03:33:42;14.35;;;3.65;;
70268;SDS011;58514;48.398;-4.274;2023-02-28T03:36:19;20.98;;;3.95;;
70268;SDS011;58514;48.398;-4.274;2023-02-28T03:39:02;12.15;;;3.03;;
70268;SDS011;58514;48.398;-4.274;2023-02-28T03:41:32;12.50;;;3.60;;
70268;SDS011;58514;48.398;-4.274;2023-02-28T03:44:05;14.63;;;4.07;;
70268;SDS011;58514;48.398;-4.274;2023-02-28T03:46:40;16.50;;;5.22;;
70268;SDS011;58514;48.398;-4.274;2023-02-28T03:49:14;20.90;;;3.20;;
70268;SDS011;58514;48.398;-4.274;2023-02-28T03:51:47;12.98;;;2.92;;
70268;SDS011;58514;48.398;-4.274;2023-02-28T03:54:18;12.55;;;3.45;;
70268;SDS011;58514;48.398;-4.274;2023-02-28T04:02:18;11.65;;;3.30;;
70268;SDS011;58514;48.398;-4.274;2023-02-28T04:04:43;10.90;;;3.57;;
70268;SDS011;58514;48.398;-4.274;2023-02-28T04:07:13;15.13;;;3.83;;
70268;SDS011;58514;48.398;-4.274;2023-02-28T04:09:40;25.73;;;7.47;;
70268;SDS011;58514;48.398;-4.274;2023-02-28T04:12:06;16.27;;;5.05;;
70268;SDS011;58514;48.398;-4.274;2023-02-28T04:14:32;15.10;;;4.05;;
70268;SDS011;58514;48.398;-4.274;2023-02-28T04:16:57;9.27;;;3.10;;
70268;SDS011;58514;48.398;-4.274;2023-02-28T04:19:23;30.65;;;3.50;;
70268;SDS011;58514;48.398;-4.274;2023-02-28T04:21:50;16.92;;;4.63;;
70268;SDS011;58514;48.398;-4.274;2023-02-28T04:24:24;18.08;;;3.80;;
70268;SDS011;58514;48.398;-4.274;2023-02-28T04:26:53;14.05;;;3.63;;
70268;SDS011;58514;48.398;-4.274;2023-02-28T04:29:21;10.27;;;2.38;;
70268;SDS011;58514;48.398;-4.274;2023-02-28T04:31:49;20.42;;;5.60;;
70268;SDS011;58514;48.398;-4.274;2023-02-28T04:34:15;16.03;;;3.87;;
70268;SDS011;58514;48.398;-4.274;2023-02-28T04:36:41;17.85;;;3.15;;
70268;SDS011;58514;48.398;-4.274;2023-02-28T04:39:07;8.40;;;3.27;;
70268;SDS011;58514;48.398;-4.274;2023-02-28T04:41:34;10.35;;;3.55;;
70268;SDS011;58514;48.398;-4.274;2023-02-28T04:44:00;13.50;;;3.03;;
70268;SDS011;58514;48.398;-4.274;2023-02-28T04:46:26;24.60;;;3.20;;
70268;SDS011;58514;48.398;-4.274;2023-02-28T04:48:51;7.70;;;2.63;;
70268;SDS011;58514;48.398;-4.274;2023-02-28T04:51:19;14.63;;;3.60;;
70268;SDS011;58514;48.398;-4.274;2023-02-28T04:53:45;16.30;;;3.10;;
70268;SDS011;58514;48.398;-4.274;2023-02-28T04:56:11;14.18;;;2.72;;
70268;SDS011;58514;48.398;-4.274;2023-02-28T04:58:38;14.68;;;3.65;;
70268;SDS011;58514;48.398;-4.274;2023-02-28T05:01:27;14.05;;;3.28;;
70268;SDS011;58514;48.398;-4.274;2023-02-28T05:03:58;20.45;;;3.70;;
70268;SDS011;58514;48.398;-4.274;2023-02-28T05:06:26;14.73;;;3.20;;
70268;SDS011;58514;48.398;-4.274;2023-02-28T05:08:52;7.90;;;2.78;;
70268;SDS011;58514;48.398;-4.274;2023-02-28T05:13:46;12.48;;;3.80;;
70268;SDS011;58514;48.398;-4.274;2023-02-28T05:16:12;10.35;;;3.63;;
70268;SDS011;58514;48.398;-4.274;2023-02-28T05:18:38;13.40;;;5.23;;
70268;SDS011;58514;48.398;-4.274;2023-02-28T05:21:04;21.77;;;6.60;;
70268;SDS011;58514;48.398;-4.274;2023-02-28T05:23:30;25.80;;;6.10;;
70268;SDS011;58514;48.398;-4.274;2023-02-28T05:25:56;12.05;;;4.72;;
70268;SDS011;58514;48.398;-4.274;2023-02-28T05:28:22;16.92;;;5.05;;
70268;SDS011;58514;48.398;-4.274;2023-02-28T05:30:48;24.45;;;6.03;;
70268;SDS011;58514;48.398;-4.274;2023-02-28T05:33:14;8.87;;;4.13;;
70268;SDS011;58514;48.398;-4.274;2023-02-28T05:35:40;10.87;;;4.33;;
70268;SDS011;58514;48.398;-4.274;2023-02-28T05:38:07;13.25;;;3.00;;
70268;SDS011;58514;48.398;-4.274;2023-02-28T05:40:34;11.57;;;3.60;;
70268;SDS011;58514;48.398;-4.274;2023-02-28T05:42:59;10.32;;;3.33;;
70268;SDS011;58514;48.398;-4.274;2023-02-28T05:45:25;12.67;;;3.20;;
70268;SDS011;58514;48.398;-4.274;2023-02-28T05:47:54;13.20;;;3.30;;
70268;SDS011;58514;48.398;-4.274;2023-02-28T05:50:21;9.95;;;4.45;;
70268;SDS011;58514;48.398;-4.274;2023-02-28T05:52:50;10.13;;;4.05;;
70268;SDS011;58514;48.398;-4.274;2023-02-28T05:55:16;12.20;;;3.47;;
70268;SDS011;58514;48.398;-4.274;2023-02-28T05:57:42;16.57;;;4.37;;
70268;SDS011;58514;48.398;-4.274;2023-02-28T06:00:08;24.57;;;4.00;;
70268;SDS011;58514;48.398;-4.274;2023-02-28T06:05:00;21.70;;;3.80;;
70268;SDS011;58514;48.398;-4.274;2023-02-28T06:07:26;15.43;;;3.63;;
70268;SDS011;58514;48.398;-4.274;2023-02-28T06:09:51;15.30;;;3.50;;
70268;SDS011;58514;48.398;-4.274;2023-02-28T06:12:17;11.83;;;5.73;;
70268;SDS011;58514;48.398;-4.274;2023-02-28T06:14:43;13.90;;;4.50;;
70268;SDS011;58514;48.398;-4.274;2023-02-28T06:17:08;17.95;;;4.22;;
70268;SDS011;58514;48.398;-4.274;2023-02-28T06:19:36;17.92;;;5.57;;
70268;SDS011;58514;48.398;-4.274;2023-02-28T06:22:03;19.30;;;4.95;;
70268;SDS011;58514;48.398;-4.274;2023-02-28T06:24:30;21.23;;;4.22;;
70268;SDS011;58514;48.398;-4.274;2023-02-28T06:26:56;14.95;;;4.15;;
70268;SDS011;58514;48.398;-4.274;2023-02-28T06:29:29;19.77;;;4.03;;
70268;SDS011;58514;48.398;-4.274;2023-02-28T06:31:56;15.18;;;4.55;;
70268;SDS011;58514;48.398;-4.274;2023-02-28T06:34:21;20.97;;;4.83;;
70268;SDS011;58514;48.398;-4.274;2023-02-28T06:36:49;12.93;;;4.50;;
70268;SDS011;58514;48.398;-4.274;2023-02-28T06:39:16;15.65;;;4.82;;
70268;SDS011;58514;48.398;-4.274;2023-02-28T06:41:42;22.95;;;6.43;;
70268;SDS011;58514;48.398;-4.274;2023-02-28T06:44:14;18.30;;;5.07;;
70268;SDS011;58514;48.398;-4.274;2023-02-28T06:46:42;14.52;;;6.35;;
70268;SDS011;58514;48.398;-4.274;2023-02-28T06:49:09;18.00;;;7.70;;
70268;SDS011;58514;48.398;-4.274;2023-02-28T06:54:03;17.93;;;6.97;;
70268;SDS011;58514;48.398;-4.274;2023-02-28T06:56:28;12.95;;;4.85;;
70268;SDS011;58514;48.398;-4.274;2023-02-28T06:58:54;17.80;;;8.40;;
70268;SDS011;58514;48.398;-4.274;2023-02-28T07:01:21;14.02;;;6.88;;
70268;SDS011;58514;48.398;-4.274;2023-02-28T07:03:50;16.02;;;6.93;;
70268;SDS011;58514;48.398;-4.274;2023-02-28T07:06:21;13.25;;;6.90;;
70268;SDS011;58514;48.398;-4.274;2023-02-28T07:08:50;13.52;;;7.68;;
70268;SDS011;58514;48.398;-4.274;2023-02-28T07:11:18;18.40;;;9.55;;
70268;SDS011;58514;48.398;-4.274;2023-02-28T07:16:11;18.23;;;9.15;;
70268;SDS011;58514;48.398;-4.274;2023-02-28T07:18:37;15.33;;;8.90;;
70268;SDS011;58514;48.398;-4.274;2023-02-28T07:21:04;13.82;;;9.65;;
70268;SDS011;58514;48.398;-4.274;2023-02-28T07:23:31;21.23;;;10.93;;
70268;SDS011;58514;48.398;-4.274;2023-02-28T07:25:57;16.92;;;10.52;;
70268;SDS011;58514;48.398;-4.274;2023-02-28T07:28:23;13.98;;;10.65;;
70268;SDS011;58514;48.398;-4.274;2023-02-28T07:30:49;19.52;;;9.85;;
70268;SDS011;58514;48.398;-4.274;2023-02-28T07:33:15;15.90;;;10.38;;
70268;SDS011;58514;48.398;-4.274;2023-02-28T07:35:41;16.27;;;10.52;;
70268;SDS011;58514;48.398;-4.274;2023-02-28T07:38:07;14.60;;;9.63;;
70268;SDS011;58514;48.398;-4.274;2023-02-28T07:40:33;12.80;;;11.25;;
70268;SDS011;58514;48.398;-4.274;2023-02-28T07:43:01;22.17;;;11.30;;
70268;SDS011;58514;48.398;-4.274;2023-02-28T07:45:28;17.67;;;11.52;;
70268;SDS011;58514;48.398;-4.274;2023-02-28T07:50:20;16.75;;;10.35;;
70268;SDS011;58514;48.398;-4.274;2023-02-28T07:52:47;21.15;;;12.43;;
70268;SDS011;58514;48.398;-4.274;2023-02-28T07:55:12;16.20;;;11.27;;
70268;SDS011;58514;48.398;-4.274;2023-02-28T07:57:39;19.38;;;11.23;;
70268;SDS011;58514;48.398;-4.274;2023-02-28T08:02:34;15.98;;;11.60;;
70268;SDS011;58514;48.398;-4.274;2023-02-28T08:05:00;17.73;;;11.73;;
70268;SDS011;58514;48.398;-4.274;2023-02-28T08:07:26;18.05;;;10.95;;
70268;SDS011;58514;48.398;-4.274;2023-02-28T08:09:52;21.38;;;11.23;;
70268;SDS011;58514;48.398;-4.274;2023-02-28T08:12:17;20.37;;;11.50;;
70268;SDS011;58514;48.398;-4.274;2023-02-28T08:14:43;17.30;;;11.50;;
70268;SDS011;58514;48.398;-4.274;2023-02-28T08:17:09;18.90;;;12.10;;
70268;SDS011;58514;48.398;-4.274;2023-02-28T08:19:36;21.15;;;12.52;;
70268;SDS011;58514;48.398;-4.274;2023-02-28T08:22:01;14.10;;;11.00;;
70268;SDS011;58514;48.398;-4.274;2023-02-28T08:24:27;20.23;;;10.70;;
70268;SDS011;58514;48.398;-4.274;2023-02-28T08:26:53;19.93;;;11.23;;
70268;SDS011;58514;48.398;-4.274;2023-02-28T08:29:19;20.30;;;11.35;;
70268;SDS011;58514;48.398;-4.274;2023-02-28T15:07:07;7.75;;;2.50;;
70268;SDS011;58514;48.398;-4.274;2023-02-28T15:09:34;14.23;;;2.83;;
70268;SDS011;58514;48.398;-4.274;2023-02-28T15:11:59;14.27;;;2.80;;
70268;SDS011;58514;48.398;-4.274;2023-02-28T15:14:25;7.30;;;3.57;;
